Time;durP1;ratioP1;P1;durP2;ratioP2;P2;SDS_P1;SDS_P2;PMS_P1;PMS_P2;Temp;Humidity;BMP_temperature;BMP_pressure;BME280_temperature;BME280_humidity;BME280_pressure;Samples;Min_cycle;Max_cycle;Signal;HPM_P1;HPM_P2
2022/12/21 00:01:20;;;;;;;28.50;18.05;;;9.30;99.90;;;;;;4955739;28;20479;-86
2022/12/21 00:03:49;;;;;;;36.80;20.25;;;9.30;99.90;;;;;;4973040;28;20125;-86
2022/12/21 00:06:15;;;;;;;31.13;17.98;;;9.30;99.90;;;;;;4973289;28;20039;-86
2022/12/21 00:08:44;;;;;;;37.97;20.58;;;9.30;99.90;;;;;;4958851;28;20106;-86
2022/12/21 00:11:11;;;;;;;35.45;20.17;;;9.30;99.90;;;;;;4959556;28;20043;-86
2022/12/21 00:13:37;;;;;;;49.28;24.00;;;9.30;99.90;;;;;;4976541;28;20109;-86
2022/12/21 00:16:09;;;;;;;38.65;22.05;;;9.30;99.90;;;;;;4975091;28;20475;-86
2022/12/21 00:18:36;;;;;;;51.40;24.40;;;9.30;99.90;;;;;;4976732;28;20102;-86
2022/12/21 00:21:11;;;;;;;40.67;21.52;;;9.20;99.90;;;;;;4959682;28;20394;-86
2022/12/21 00:23:37;;;;;;;40.65;20.98;;;9.20;99.90;;;;;;4954914;29;20106;-86
2022/12/21 00:26:04;;;;;;;32.80;19.90;;;9.20;99.90;;;;;;4945144;28;20070;-86
2022/12/21 00:28:30;;;;;;;37.85;20.85;;;9.20;99.90;;;;;;4958511;28;20150;-86
2022/12/21 00:31:05;;;;;;;37.05;19.85;;;9.20;99.90;;;;;;4975663;28;20576;-86
2022/12/21 00:33:31;;;;;;;32.58;18.50;;;9.10;99.90;;;;;;4958800;28;20062;-86
2022/12/21 00:35:58;;;;;;;34.92;18.95;;;9.10;99.90;;;;;;4958744;28;20141;-86
2022/12/21 00:38:24;;;;;;;43.22;20.67;;;9.10;99.90;;;;;;4975256;28;20125;-86
2022/12/21 00:40:59;;;;;;;50.42;22.70;;;9.10;99.90;;;;;;4959334;28;20142;-86
2022/12/21 00:43:24;;;;;;;52.63;22.98;;;9.10;99.90;;;;;;4958335;28;20137;-86
2022/12/21 00:45:50;;;;;;;37.63;20.33;;;9.10;99.90;;;;;;4958725;28;20133;-86
2022/12/21 00:48:15;;;;;;;37.20;19.73;;;9.00;99.90;;;;;;4958825;28;20504;-86
2022/12/21 00:50:41;;;;;;;40.15;21.00;;;9.00;99.90;;;;;;4958135;28;20039;-86
2022/12/21 00:53:08;;;;;;;42.42;21.33;;;9.10;99.90;;;;;;4975666;28;20035;-86
2022/12/21 00:55:34;;;;;;;45.95;21.35;;;9.00;99.90;;;;;;4975886;28;20047;-86
2022/12/21 00:58:01;;;;;;;39.22;20.75;;;9.00;99.90;;;;;;4957484;28;20050;-86
2022/12/21 01:00:27;;;;;;;54.20;21.65;;;9.00;99.90;;;;;;4958681;28;20051;-86
2022/12/21 01:02:53;;;;;;;45.53;20.13;;;9.00;99.90;;;;;;4959171;28;20039;-86
2022/12/21 01:05:19;;;;;;;31.33;18.33;;;9.00;99.90;;;;;;4975075;28;20047;-86
2022/12/21 01:07:44;;;;;;;34.25;18.15;;;8.90;99.90;;;;;;4958938;28;20143;-86
2022/12/21 01:10:11;;;;;;;51.13;20.92;;;9.00;99.90;;;;;;4975257;28;20093;-86
2022/12/21 01:12:36;;;;;;;33.35;18.52;;;8.90;99.90;;;;;;4974992;28;20078;-86
2022/12/21 01:15:03;;;;;;;43.90;19.40;;;8.90;99.90;;;;;;4958640;28;20070;-86
2022/12/21 01:17:28;;;;;;;50.25;20.17;;;8.90;99.90;;;;;;4957649;28;20055;-86
2022/12/21 01:19:54;;;;;;;60.15;19.85;;;8.90;99.90;;;;;;4956531;28;20495;-86
2022/12/21 01:22:20;;;;;;;59.60;19.05;;;8.90;99.90;;;;;;4975009;28;20074;-86
2022/12/21 01:24:46;;;;;;;40.47;18.00;;;8.90;99.90;;;;;;4957971;28;20050;-85
2022/12/21 01:27:12;;;;;;;30.50;17.42;;;8.90;99.90;;;;;;4957205;28;20494;-86
2022/12/21 01:29:38;;;;;;;25.80;15.60;;;8.90;99.90;;;;;;4957753;28;20126;-86
2022/12/21 01:32:04;;;;;;;24.75;15.23;;;8.90;99.90;;;;;;4975576;28;20047;-86
2022/12/21 01:34:29;;;;;;;32.88;16.63;;;8.90;99.90;;;;;;4956554;28;20057;-86
2022/12/21 01:36:55;;;;;;;27.17;16.45;;;8.80;99.90;;;;;;4958130;28;20046;-85
2022/12/21 01:39:21;;;;;;;30.17;15.85;;;8.90;99.90;;;;;;4957113;28;20384;-86
2022/12/21 01:41:46;;;;;;;30.52;16.67;;;8.80;99.90;;;;;;4957176;28;20047;-86
2022/12/21 01:44:48;;;;;;;34.65;16.33;;;8.80;99.90;;;;;;4957304;28;20502;-86
2022/12/21 01:47:19;;;;;;;32.40;15.50;;;8.80;99.90;;;;;;4952423;28;20046;-85
2022/12/21 01:49:52;;;;;;;42.45;15.73;;;8.80;99.90;;;;;;4974468;28;20534;-86
2022/12/21 01:52:18;;;;;;;41.23;15.87;;;8.80;99.90;;;;;;4974590;28;20050;-86
2022/12/21 01:54:52;;;;;;;44.72;15.63;;;8.80;99.90;;;;;;4974129;28;20290;-86
2022/12/21 01:57:18;;;;;;;30.42;15.30;;;8.80;99.90;;;;;;4974905;28;20395;-86
2022/12/21 01:59:47;;;;;;;34.65;15.30;;;8.70;99.90;;;;;;4974512;28;20070;-86
2022/12/21 02:02:22;;;;;;;70.70;16.85;;;8.70;99.90;;;;;;4973843;28;20043;-86
2022/12/21 02:04:51;;;;;;;40.88;14.80;;;8.70;99.90;;;;;;4957448;28;20479;-86
2022/12/21 02:07:18;;;;;;;27.63;14.82;;;8.70;99.90;;;;;;4975394;28;20085;-86
2022/12/21 02:09:44;;;;;;;22.85;13.88;;;8.70;99.90;;;;;;4976901;28;20117;-85
2022/12/21 02:12:14;;;;;;;35.58;15.38;;;8.70;99.90;;;;;;4980391;28;20121;-87
2022/12/21 02:14:43;;;;;;;40.10;14.43;;;8.70;99.90;;;;;;4957995;28;20039;-88
2022/12/21 02:17:29;;;;;;;68.20;14.90;;;8.70;99.90;;;;;;4955997;28;20454;-87
2022/12/21 02:20:06;;;;;;;59.75;14.65;;;8.70;99.90;;;;;;4971325;28;20502;-88
2022/12/21 02:22:56;;;;;;;68.80;13.68;;;8.70;99.90;;;;;;4955608;28;20051;-88
2022/12/21 02:25:59;;;;;;;25.75;14.07;;;8.60;99.90;;;;;;4974714;28;20049;-88
2022/12/21 02:28:55;;;;;;;22.38;13.52;;;8.60;99.90;;;;;;4957650;28;20050;-88
2022/12/21 02:31:41;;;;;;;32.88;13.18;;;8.60;99.90;;;;;;4974206;28;20042;-88
2022/12/21 02:34:32;;;;;;;21.85;13.52;;;8.60;99.90;;;;;;4974673;28;20066;-88
2022/12/21 02:37:16;;;;;;;22.27;12.32;;;8.60;99.90;;;;;;4969585;28;20058;-88
2022/12/21 02:40:06;;;;;;;66.63;12.60;;;8.60;99.90;;;;;;4957384;28;20062;-88
2022/12/21 02:45:34;;;;;;;28.70;12.55;;;8.50;99.90;;;;;;4956719;28;20137;-88
2022/12/21 02:48:29;;;;;;;21.95;13.27;;;8.50;99.90;;;;;;4957150;28;20090;-88
2022/12/21 02:51:00;;;;;;;23.70;13.48;;;8.50;99.90;;;;;;4938493;28;20066;-88
2022/12/21 02:53:31;;;;;;;20.05;12.65;;;8.50;99.90;;;;;;4957090;28;20376;-88
2022/12/21 02:55:58;;;;;;;22.52;12.75;;;8.50;99.90;;;;;;4957151;28;20129;-88
2022/12/21 02:58:24;;;;;;;32.33;12.65;;;8.50;99.90;;;;;;4973388;28;20054;-88
2022/12/21 03:00:52;;;;;;;20.77;12.07;;;8.50;99.90;;;;;;4956890;28;20095;-88
2022/12/21 03:03:48;;;;;;;25.40;12.88;;;8.50;99.90;;;;;;4973409;28;20046;-88
2022/12/21 03:06:17;;;;;;;87.53;13.77;;;8.50;99.90;;;;;;4973481;28;20051;-88
2022/12/21 03:09:07;;;;;;;21.45;11.65;;;8.40;99.90;;;;;;4974080;28;20058;-88
2022/12/21 03:11:58;;;;;;;102.30;12.38;;;8.40;99.90;;;;;;4955914;28;20451;-88
2022/12/21 03:14:30;;;;;;;79.50;11.82;;;8.40;99.90;;;;;;4956543;28;20431;-88
2022/12/21 03:17:10;;;;;;;33.90;10.77;;;8.40;99.90;;;;;;4956798;28;20054;-88
2022/12/21 03:19:54;;;;;;;71.97;11.60;;;8.30;99.90;;;;;;4955291;28;20050;-87
2022/12/21 03:22:34;;;;;;;51.22;11.60;;;8.30;99.90;;;;;;4960726;28;20402;-88
2022/12/21 03:25:08;;;;;;;36.97;11.63;;;8.20;99.90;;;;;;4956979;28;20062;-88
2022/12/21 03:27:39;;;;;;;19.40;10.75;;;8.20;99.90;;;;;;4955665;28;20047;-88
2022/12/21 03:30:09;;;;;;;18.48;11.52;;;8.20;99.90;;;;;;4974124;28;20057;-88
2022/12/21 03:32:40;;;;;;;18.80;11.35;;;8.20;99.90;;;;;;4973223;28;20582;-88
2022/12/21 03:35:14;;;;;;;35.45;11.50;;;8.20;99.90;;;;;;4973265;28;20403;-88
2022/12/21 03:37:41;;;;;;;21.25;11.07;;;8.20;99.90;;;;;;4973873;28;20051;-88
2022/12/21 03:40:16;;;;;;;17.15;10.73;;;8.20;99.90;;;;;;4955405;28;20117;-87
2022/12/21 03:42:49;;;;;;;18.50;11.55;;;8.20;99.90;;;;;;4959019;28;20038;-88
2022/12/21 03:45:24;;;;;;;29.83;10.68;;;8.20;99.90;;;;;;4959232;28;20054;-88
2022/12/21 03:47:57;;;;;;;16.80;10.88;;;8.20;99.90;;;;;;4975628;28;20049;-87
2022/12/21 03:50:28;;;;;;;39.17;10.73;;;8.20;99.90;;;;;;4959799;28;20085;-88
2022/12/21 03:53:21;;;;;;;20.00;10.38;;;8.20;99.90;;;;;;4976956;28;20042;-88
2022/12/21 03:55:49;;;;;;;53.53;11.48;;;8.10;99.90;;;;;;4960099;28;20057;-88
2022/12/21 03:58:15;;;;;;;24.83;11.18;;;8.10;99.90;;;;;;4976797;28;20053;-88
2022/12/21 04:00:58;;;;;;;69.70;10.52;;;8.10;99.90;;;;;;4959312;28;20062;-87
2022/12/21 04:03:33;;;;;;;27.02;10.45;;;8.10;99.90;;;;;;4958005;29;20384;-88
2022/12/21 04:06:21;;;;;;;35.55;10.95;;;8.10;99.90;;;;;;4976754;28;20090;-89
2022/12/21 04:08:47;;;;;;;47.97;10.80;;;8.10;99.90;;;;;;4976595;28;20050;-88
2022/12/21 04:13:59;;;;;;;20.80;10.82;;;8.10;99.90;;;;;;4979642;28;20054;-88
2022/12/21 04:16:25;;;;;;;22.92;10.60;;;8.00;99.90;;;;;;4969828;28;20467;-89
2022/12/21 04:21:35;;;;;;;49.97;12.05;;;8.00;99.90;;;;;;4966990;28;20050;-88
2022/12/21 04:29:28;;;;;;;34.08;11.90;;;8.00;99.90;;;;;;4958463;28;20047;-89
2022/12/21 04:31:54;;;;;;;18.02;10.25;;;8.00;99.90;;;;;;4958850;28;20047;-88
2022/12/21 04:34:20;;;;;;;18.48;10.13;;;7.90;99.90;;;;;;4976241;28;20605;-88
2022/12/21 04:39:29;;;;;;;90.15;12.20;;;7.90;99.90;;;;;;4976415;28;20185;-88
2022/12/21 04:41:55;;;;;;;22.83;12.30;;;7.90;99.90;;;;;;4959328;28;20173;-88
2022/12/21 04:44:21;;;;;;;41.42;11.88;;;7.90;99.90;;;;;;4957986;28;20050;-88
2022/12/21 04:46:46;;;;;;;42.92;12.18;;;7.90;99.90;;;;;;4958011;28;20046;-88
2022/12/21 04:49:12;;;;;;;45.88;11.95;;;7.90;99.90;;;;;;4958762;28;20042;-89
2022/12/21 04:51:37;;;;;;;26.70;11.52;;;7.90;99.90;;;;;;4958074;28;20082;-88
2022/12/21 04:54:04;;;;;;;22.45;10.65;;;7.90;99.90;;;;;;4976341;28;20375;-89
2022/12/21 04:56:30;;;;;;;25.05;10.65;;;7.90;99.90;;;;;;4976008;28;20038;-89
2022/12/21 04:58:55;;;;;;;23.73;11.10;;;7.80;99.90;;;;;;4975044;28;20618;-88
2022/12/21 05:01:21;;;;;;;25.27;11.63;;;7.90;99.90;;;;;;4956472;28;20133;-87
2022/12/21 05:03:48;;;;;;;18.67;10.43;;;7.80;99.90;;;;;;4956463;28;20051;-88
2022/12/21 05:06:15;;;;;;;104.90;14.68;;;7.80;99.90;;;;;;4956885;28;20141;-87
2022/12/21 05:08:41;;;;;;;26.50;10.93;;;7.90;99.90;;;;;;4957839;28;20063;-89
2022/12/21 05:11:08;;;;;;;113.05;16.45;;;7.80;99.90;;;;;;4974953;28;20475;-88
2022/12/21 05:13:34;;;;;;;48.10;13.52;;;7.80;99.90;;;;;;4958028;28;20056;-88
2022/12/21 05:16:05;;;;;;;18.27;10.73;;;7.80;99.90;;;;;;4957750;28;20569;-88
2022/12/21 05:18:30;;;;;;;33.13;12.38;;;7.80;99.90;;;;;;4953633;28;20043;-88
2022/12/21 05:20:56;;;;;;;79.97;15.80;;;7.80;99.90;;;;;;4958241;28;20047;-90
2022/12/21 05:23:21;;;;;;;109.68;16.40;;;7.80;99.90;;;;;;4958126;28;20566;-89
2022/12/21 05:25:47;;;;;;;47.72;13.18;;;7.80;99.90;;;;;;4957410;28;20073;-88
2022/12/21 05:28:12;;;;;;;56.40;13.40;;;7.80;99.90;;;;;;4958066;28;20118;-89
2022/12/21 05:30:39;;;;;;;59.17;14.50;;;7.70;99.90;;;;;;4957915;28;20047;-88
2022/12/21 05:33:05;;;;;;;57.67;15.07;;;7.70;99.90;;;;;;4957388;28;20150;-91
2022/12/21 05:35:31;;;;;;;24.85;13.50;;;7.70;99.90;;;;;;4975299;28;20059;-89
2022/12/21 05:37:56;;;;;;;112.07;16.92;;;7.80;99.90;;;;;;4975866;28;20178;-89
2022/12/21 05:40:22;;;;;;;52.05;15.23;;;7.70;99.90;;;;;;4974532;28;20505;-90
2022/12/21 05:42:47;;;;;;;33.63;13.48;;;7.70;99.90;;;;;;4957259;28;20050;-87
2022/12/21 05:45:14;;;;;;;20.23;11.52;;;7.70;99.90;;;;;;4955850;28;20097;-88
2022/12/21 05:47:40;;;;;;;22.77;12.00;;;7.70;99.90;;;;;;4974720;28;20117;-87
2022/12/21 05:50:06;;;;;;;37.63;13.15;;;7.70;99.90;;;;;;4958095;28;20133;-87
2022/12/21 05:52:32;;;;;;;26.23;13.02;;;7.60;99.90;;;;;;4958546;28;20042;-87
2022/12/21 05:54:57;;;;;;;29.83;13.10;;;7.70;99.90;;;;;;4957689;28;20618;-87
2022/12/21 05:57:23;;;;;;;47.33;13.52;;;7.60;99.90;;;;;;4957542;28;20054;-87
2022/12/21 05:59:49;;;;;;;42.70;14.73;;;7.60;99.90;;;;;;4957526;28;20069;-88
2022/12/21 06:02:14;;;;;;;28.50;13.63;;;7.60;99.90;;;;;;4957163;28;20051;-87
2022/12/21 06:04:40;;;;;;;21.20;12.82;;;7.60;99.90;;;;;;4957722;28;20522;-87
2022/12/21 06:07:05;;;;;;;18.63;11.88;;;7.60;99.90;;;;;;4957666;28;20414;-87
2022/12/21 06:09:31;;;;;;;20.52;11.95;;;7.60;99.90;;;;;;4957553;28;20046;-87
2022/12/21 06:11:57;;;;;;;24.92;13.98;;;7.60;99.90;;;;;;4957664;28;20093;-87
2022/12/21 06:14:22;;;;;;;22.83;12.63;;;7.60;99.90;;;;;;4956644;28;20058;-87
2022/12/21 06:16:48;;;;;;;19.65;11.98;;;7.60;99.90;;;;;;4974991;28;20125;-87
2022/12/21 06:19:13;;;;;;;21.17;11.95;;;7.60;99.90;;;;;;4957315;28;20439;-87
2022/12/21 06:21:39;;;;;;;28.10;14.40;;;7.60;99.90;;;;;;4974195;28;20066;-87
2022/12/21 06:24:05;;;;;;;19.48;12.13;;;7.60;99.90;;;;;;4957624;28;20046;-87
2022/12/21 06:26:31;;;;;;;20.35;11.60;;;7.60;99.90;;;;;;4974206;28;20430;-87
2022/12/21 06:28:56;;;;;;;22.98;12.68;;;7.60;99.90;;;;;;4956969;28;20055;-87
2022/12/21 06:31:23;;;;;;;84.10;17.42;;;7.60;99.90;;;;;;4974427;28;20091;-87
2022/12/21 06:33:49;;;;;;;36.72;15.90;;;7.60;99.90;;;;;;4957512;28;20050;-87
2022/12/21 06:36:15;;;;;;;76.03;16.88;;;7.60;99.90;;;;;;4973577;28;20051;-87
2022/12/21 06:38:41;;;;;;;31.48;15.25;;;7.60;99.90;;;;;;4957670;28;20058;-86
2022/12/21 06:41:11;;;;;;;23.90;13.35;;;7.50;99.90;;;;;;4974022;28;20038;-86
2022/12/21 06:43:38;;;;;;;31.92;13.77;;;7.50;99.90;;;;;;4973870;28;20057;-86
2022/12/21 06:46:16;;;;;;;59.40;15.52;;;7.50;99.90;;;;;;4957596;28;20407;-87
2022/12/21 06:48:42;;;;;;;68.18;18.02;;;7.50;99.90;;;;;;4974799;28;20405;-87
2022/12/21 06:51:11;;;;;;;27.33;14.05;;;7.50;99.90;;;;;;4956347;28;20046;-87
2022/12/21 06:53:39;;;;;;;22.75;13.30;;;7.50;99.90;;;;;;4957435;28;20050;-87
2022/12/21 06:56:07;;;;;;;55.88;16.23;;;7.50;99.90;;;;;;4957003;28;20479;-87
2022/12/21 06:58:34;;;;;;;106.85;20.08;;;7.50;99.90;;;;;;4973734;28;20050;-87
2022/12/21 07:01:07;;;;;;;84.47;20.25;;;7.50;99.90;;;;;;4957524;28;20043;-87
2022/12/21 07:03:33;;;;;;;79.75;19.00;;;7.50;99.90;;;;;;4972679;28;20051;-87
2022/12/21 07:05:59;;;;;;;56.88;16.75;;;7.50;99.90;;;;;;4974419;28;20126;-87
2022/12/21 07:08:25;;;;;;;37.95;16.02;;;7.50;99.90;;;;;;4973055;28;20046;-87
2022/12/21 07:10:58;;;;;;;86.43;20.70;;;7.50;99.90;;;;;;4971947;28;20145;-87
2022/12/21 07:13:25;;;;;;;67.13;22.05;;;7.50;99.90;;;;;;4956974;28;20506;-87
2022/12/21 07:15:51;;;;;;;93.18;24.77;;;7.50;99.90;;;;;;4956999;28;20138;-87
2022/12/21 07:18:16;;;;;;;47.40;23.75;;;7.60;99.90;;;;;;4976960;28;20562;-87
2022/12/21 07:20:42;;;;;;;82.38;24.38;;;7.50;99.90;;;;;;4961015;28;20042;-87
2022/12/21 07:23:08;;;;;;;62.10;24.60;;;7.60;99.90;;;;;;4978039;28;20387;-87
2022/12/21 07:25:34;;;;;;;27.25;16.10;;;7.60;99.90;;;;;;4975902;28;20051;-86
2022/12/21 07:27:59;;;;;;;79.95;25.95;;;7.60;99.90;;;;;;4960767;28;20046;-87
2022/12/21 07:30:25;;;;;;;29.52;16.60;;;7.60;99.90;;;;;;4976918;28;20042;-86
2022/12/21 07:32:54;;;;;;;55.80;22.13;;;7.50;99.90;;;;;;4960050;28;20517;-86
2022/12/21 07:35:21;;;;;;;54.05;23.55;;;7.60;99.90;;;;;;4959915;28;20054;-87
2022/12/21 07:37:48;;;;;;;68.35;25.75;;;7.60;99.90;;;;;;4977621;28;20042;-86
2022/12/21 07:40:15;;;;;;;59.40;25.95;;;7.60;99.90;;;;;;4980453;28;20042;-87
2022/12/21 07:42:42;;;;;;;58.65;24.05;;;7.50;99.90;;;;;;4977970;28;20047;-86
2022/12/21 07:45:09;;;;;;;68.95;27.65;;;7.60;99.90;;;;;;4977684;28;20054;-87
2022/12/21 07:47:35;;;;;;;63.50;24.38;;;7.60;99.90;;;;;;4959321;28;20051;-87
2022/12/21 07:50:02;;;;;;;84.90;29.85;;;7.60;99.90;;;;;;4977280;28;20392;-87
2022/12/21 07:52:27;;;;;;;50.67;22.17;;;7.60;99.90;;;;;;4976179;28;20046;-88
2022/12/21 07:54:53;;;;;;;84.80;25.58;;;7.60;99.90;;;;;;4976622;28;20061;-87
2022/12/21 07:57:18;;;;;;;80.90;25.48;;;7.60;99.90;;;;;;4959880;28;20043;-88
2022/12/21 07:59:45;;;;;;;64.35;25.75;;;7.60;99.90;;;;;;4959115;28;20047;-87
2022/12/21 08:02:10;;;;;;;50.35;23.13;;;7.60;99.90;;;;;;4977185;28;20532;-87
2022/12/21 08:04:36;;;;;;;66.82;23.73;;;7.60;99.90;;;;;;4976783;28;20125;-88
2022/12/21 08:07:02;;;;;;;80.07;25.88;;;7.60;99.90;;;;;;4959080;28;20443;-87
2022/12/21 08:09:27;;;;;;;60.33;22.50;;;7.60;99.90;;;;;;4976818;28;20483;-89
2022/12/21 08:11:53;;;;;;;103.18;26.33;;;7.60;99.90;;;;;;4976820;28;20035;-88
2022/12/21 08:14:19;;;;;;;36.40;18.88;;;7.60;99.90;;;;;;4958332;28;20049;-89
2022/12/21 08:16:44;;;;;;;58.15;23.67;;;7.60;99.90;;;;;;4959615;28;20043;-89
2022/12/21 08:19:10;;;;;;;83.47;24.92;;;7.70;99.90;;;;;;4959297;28;20072;-89
2022/12/21 08:21:35;;;;;;;41.90;21.58;;;7.60;99.90;;;;;;4976228;28;20047;-89
2022/12/21 08:24:01;;;;;;;76.18;26.30;;;7.60;99.90;;;;;;4959859;28;20043;-89
2022/12/21 08:26:27;;;;;;;71.18;31.05;;;7.60;99.90;;;;;;4959134;28;20085;-88
2022/12/21 08:28:52;;;;;;;47.08;23.38;;;7.60;99.90;;;;;;4976105;28;20070;-89
2022/12/21 08:31:19;;;;;;;67.10;28.23;;;7.60;99.90;;;;;;4976146;28;20455;-89
2022/12/21 08:33:45;;;;;;;66.95;27.85;;;7.60;99.90;;;;;;4959483;28;20058;-88
2022/12/21 08:36:20;;;;;;;65.28;29.15;;;7.60;99.90;;;;;;4958112;28;20514;-88
2022/12/21 08:38:46;;;;;;;65.85;28.67;;;7.60;99.90;;;;;;4959196;28;20047;-89
2022/12/21 08:41:13;;;;;;;73.85;29.30;;;7.60;99.90;;;;;;4959136;28;20380;-88
2022/12/21 08:43:39;;;;;;;82.00;32.17;;;7.60;99.90;;;;;;4958061;28;20121;-88
2022/12/21 08:46:06;;;;;;;67.38;31.73;;;7.60;99.90;;;;;;4958994;28;20174;-88
2022/12/21 08:48:33;;;;;;;65.63;27.83;;;7.70;99.90;;;;;;4959441;28;20387;-89
2022/12/21 08:50:59;;;;;;;56.95;24.95;;;7.60;99.90;;;;;;4958713;28;20356;-89
2022/12/21 08:53:25;;;;;;;59.83;25.23;;;7.60;99.90;;;;;;4959351;28;20043;-89
2022/12/21 08:55:51;;;;;;;77.13;28.80;;;7.60;99.90;;;;;;4958221;28;20054;-89
2022/12/21 08:58:17;;;;;;;96.40;31.48;;;7.60;99.90;;;;;;4958851;28;20411;-89
2022/12/21 09:00:43;;;;;;;101.07;38.97;;;7.60;99.90;;;;;;4976152;28;20559;-89
2022/12/21 09:03:09;;;;;;;91.43;31.15;;;7.60;99.90;;;;;;4973185;28;20883;-88
2022/12/21 09:05:36;;;;;;;100.25;32.28;;;7.60;99.90;;;;;;4958750;28;20043;-89
2022/12/21 09:08:02;;;;;;;79.18;28.23;;;7.60;99.90;;;;;;4959055;28;20466;-89
2022/12/21 09:10:28;;;;;;;81.40;28.73;;;7.60;99.90;;;;;;4958101;28;20142;-89
2022/12/21 09:12:55;;;;;;;91.95;29.58;;;7.60;99.90;;;;;;4976027;28;20061;-89
2022/12/21 09:15:21;;;;;;;78.97;28.65;;;7.60;99.90;;;;;;4957926;28;20043;-89
2022/12/21 09:17:47;;;;;;;68.90;27.67;;;7.70;99.90;;;;;;4957622;28;20121;-89
2022/12/21 09:20:13;;;;;;;71.53;29.38;;;7.70;99.90;;;;;;4974724;28;20131;-87
2022/12/21 09:22:39;;;;;;;89.00;30.70;;;7.70;99.90;;;;;;4958482;28;20055;-87
2022/12/21 09:25:06;;;;;;;78.85;29.10;;;7.70;99.90;;;;;;4958151;28;20469;-88
2022/12/21 09:27:31;;;;;;;75.65;27.42;;;7.70;99.90;;;;;;4975828;28;20051;-87
2022/12/21 09:29:57;;;;;;;62.60;26.67;;;7.70;99.90;;;;;;4975735;28;20048;-88
2022/12/21 09:32:23;;;;;;;75.85;28.17;;;7.70;99.90;;;;;;4974755;28;20453;-88
2022/12/21 09:34:49;;;;;;;67.35;26.90;;;7.70;99.90;;;;;;4975823;28;20151;-86
2022/12/21 09:37:14;;;;;;;68.57;26.20;;;7.70;99.90;;;;;;4957639;28;20411;-86
2022/12/21 09:39:40;;;;;;;61.38;26.02;;;7.70;99.90;;;;;;4974045;28;20057;-86
2022/12/21 09:42:34;;;;;;;63.83;25.73;;;7.70;99.90;;;;;;4958116;28;20403;-87
2022/12/21 09:45:26;;;;;;;55.53;24.08;;;7.70;99.90;;;;;;4974792;28;20088;-88
2022/12/21 09:48:03;;;;;;;55.88;24.83;;;7.70;99.90;;;;;;4958520;28;20050;-90
2022/12/21 09:50:53;;;;;;;61.83;25.35;;;7.70;99.90;;;;;;4975260;28;20130;-89
2022/12/21 09:53:33;;;;;;;49.17;22.95;;;7.70;99.90;;;;;;4957045;28;20055;-87
2022/12/21 09:56:00;;;;;;;47.20;22.45;;;7.70;99.90;;;;;;4973001;28;20547;-89
2022/12/21 09:58:38;;;;;;;48.22;21.85;;;7.70;99.90;;;;;;4957581;28;20490;-89
2022/12/21 10:01:42;;;;;;;51.67;23.20;;;7.70;99.90;;;;;;4957741;28;20467;-88
2022/12/21 10:04:10;;;;;;;49.70;22.43;;;7.70;99.90;;;;;;4975205;28;20038;-90
2022/12/21 10:06:47;;;;;;;51.03;22.90;;;7.70;99.90;;;;;;4957442;28;20514;-89
2022/12/21 10:09:51;;;;;;;70.72;24.67;;;7.70;99.90;;;;;;4957581;28;20047;-89
2022/12/21 10:12:33;;;;;;;63.00;26.25;;;7.70;99.90;;;;;;4957763;28;20491;-90
2022/12/21 10:15:26;;;;;;;77.15;30.00;;;7.70;99.90;;;;;;4957475;28;20439;-90
2022/12/21 10:17:58;;;;;;;68.32;28.08;;;7.80;99.90;;;;;;4956349;28;20054;-89
2022/12/21 10:20:44;;;;;;;58.40;26.98;;;7.70;99.90;;;;;;4956562;28;20062;-89
2022/12/21 10:23:25;;;;;;;69.93;30.05;;;7.80;99.90;;;;;;4957556;28;20082;-89
2022/12/21 10:25:57;;;;;;;59.58;25.90;;;7.70;99.90;;;;;;4974849;28;20142;-89
2022/12/21 10:28:25;;;;;;;62.80;27.95;;;7.80;99.90;;;;;;4973979;28;20081;-90
2022/12/21 10:31:02;;;;;;;58.20;25.35;;;7.80;99.90;;;;;;4958219;28;20162;-90
2022/12/21 10:33:29;;;;;;;53.78;24.55;;;7.80;99.90;;;;;;4957319;28;20564;-91
2022/12/21 10:35:58;;;;;;;60.50;25.40;;;7.80;99.90;;;;;;4956686;28;20059;-90
2022/12/21 10:38:31;;;;;;;66.43;27.00;;;7.80;99.90;;;;;;4974492;28;20050;-90
2022/12/21 10:40:56;;;;;;;61.65;26.83;;;7.90;99.90;;;;;;4974678;28;20047;-90
2022/12/21 10:43:22;;;;;;;67.28;27.08;;;7.80;99.90;;;;;;4955931;28;20038;-89
2022/12/21 10:45:49;;;;;;;73.10;27.52;;;7.80;99.90;;;;;;4956704;28;20058;-89
2022/12/21 10:48:15;;;;;;;63.47;25.02;;;7.90;99.90;;;;;;4974458;28;20046;-88
2022/12/21 10:50:44;;;;;;;66.85;25.50;;;7.90;99.90;;;;;;4956391;28;20051;-88
2022/12/21 10:53:26;;;;;;;50.13;23.02;;;7.90;99.90;;;;;;4956892;28;20546;-88
2022/12/21 10:55:58;;;;;;;71.97;25.45;;;7.90;99.90;;;;;;4956362;28;20483;-89
2022/12/21 10:58:31;;;;;;;58.00;23.85;;;7.90;99.90;;;;;;4956484;28;20062;-89
2022/12/21 11:01:04;;;;;;;57.83;23.83;;;7.90;99.90;;;;;;4957044;28;20054;-88
2022/12/21 11:03:38;;;;;;;59.10;23.13;;;8.00;99.90;;;;;;4955923;28;20516;-89
2022/12/21 11:06:16;;;;;;;49.75;21.77;;;8.00;99.90;;;;;;4973940;28;20046;-87
2022/12/21 11:08:47;;;;;;;58.78;22.65;;;8.00;99.90;;;;;;4938636;28;20047;-88
2022/12/21 11:11:33;;;;;;;56.78;23.02;;;8.00;99.90;;;;;;4972773;28;20118;-90
2022/12/21 11:14:03;;;;;;;58.35;23.05;;;8.00;99.90;;;;;;4949917;29;20039;-89
2022/12/21 11:16:32;;;;;;;60.03;22.65;;;8.10;99.90;;;;;;4949935;28;20053;-89
2022/12/21 11:19:00;;;;;;;55.45;21.75;;;8.10;99.90;;;;;;4957314;28;20376;-89
2022/12/21 11:21:46;;;;;;;57.38;22.73;;;8.10;99.90;;;;;;4973368;28;20051;-87
2022/12/21 11:24:12;;;;;;;57.33;22.95;;;8.20;99.90;;;;;;4973070;28;20097;-86
2022/12/21 11:26:44;;;;;;;53.88;21.17;;;8.20;99.90;;;;;;4974156;28;20487;-87
2022/12/21 11:29:24;;;;;;;55.13;21.67;;;8.20;99.90;;;;;;4956425;28;20618;-88
2022/12/21 11:31:53;;;;;;;55.10;21.83;;;8.20;99.90;;;;;;4956219;28;20042;-85
2022/12/21 11:34:36;;;;;;;56.13;22.02;;;8.20;99.90;;;;;;4956438;28;20109;-86
2022/12/21 11:37:06;;;;;;;50.13;20.52;;;8.30;99.90;;;;;;4960143;28;20116;-87
2022/12/21 11:39:32;;;;;;;51.03;20.98;;;8.30;99.90;;;;;;4956195;28;20050;-87
2022/12/21 11:41:57;;;;;;;49.83;21.48;;;8.40;99.90;;;;;;4956904;28;20054;-89
2022/12/21 11:44:30;;;;;;;54.92;21.98;;;8.40;99.90;;;;;;4954937;28;20043;-87
2022/12/21 11:47:18;;;;;;;53.28;20.63;;;8.40;99.90;;;;;;4976464;28;20062;-87
2022/12/21 11:50:08;;;;;;;52.25;20.50;;;8.40;99.90;;;;;;4955561;28;20495;-86
2022/12/21 11:52:53;;;;;;;50.67;20.15;;;8.40;99.90;;;;;;4957550;28;20047;-87
2022/12/21 11:55:42;;;;;;;45.30;19.95;;;8.50;99.90;;;;;;4955470;28;20046;-86
2022/12/21 11:58:18;;;;;;;50.30;20.60;;;8.50;99.90;;;;;;4972643;28;20078;-86
2022/12/21 12:00:51;;;;;;;50.00;20.42;;;8.50;99.90;;;;;;4970591;28;20039;-88
2022/12/21 12:03:37;;;;;;;47.75;21.00;;;8.50;99.90;;;;;;4975220;28;20039;-88
2022/12/21 12:06:17;;;;;;;49.70;19.70;;;8.60;99.90;;;;;;4975931;28;20089;-89
2022/12/21 12:09:12;;;;;;;51.55;20.00;;;8.60;99.90;;;;;;4962673;28;20129;-88
2022/12/21 12:12:03;;;;;;;47.03;20.05;;;8.60;99.90;;;;;;4958481;28;20050;-88
2022/12/21 12:15:06;;;;;;;50.92;19.77;;;8.60;99.90;;;;;;4955527;28;20054;-88
2022/12/21 12:17:51;;;;;;;47.20;21.73;;;8.60;99.90;;;;;;4958862;28;20101;-88
2022/12/21 12:20:35;;;;;;;47.50;20.88;;;8.70;99.90;;;;;;4973650;28;20133;-88
2022/12/21 12:23:26;;;;;;;54.90;22.00;;;8.70;99.90;;;;;;4945212;29;20058;-88
2022/12/21 12:26:21;;;;;;;50.08;21.58;;;8.70;99.90;;;;;;4963413;28;20050;-89
2022/12/21 12:29:01;;;;;;;46.90;21.52;;;8.70;99.90;;;;;;4956528;28;20055;-88
2022/12/21 12:31:48;;;;;;;52.63;22.23;;;8.70;99.90;;;;;;4956427;28;20081;-88
2022/12/21 12:34:37;;;;;;;44.80;21.38;;;8.80;99.90;;;;;;4957970;28;20054;-88
2022/12/21 12:37:24;;;;;;;49.83;21.90;;;8.80;99.90;;;;;;4976562;28;20074;-88
2022/12/21 12:40:05;;;;;;;47.38;21.73;;;8.80;99.90;;;;;;4957944;28;20042;-88
2022/12/21 12:43:07;;;;;;;47.83;22.13;;;8.70;99.90;;;;;;4958313;28;20046;-88
2022/12/21 12:45:51;;;;;;;43.85;21.40;;;8.80;99.90;;;;;;4958012;28;20050;-88
2022/12/21 12:48:39;;;;;;;50.13;22.80;;;8.80;99.90;;;;;;4947808;28;20109;-88
2022/12/21 12:51:18;;;;;;;45.70;21.80;;;8.70;99.90;;;;;;4976335;28;20034;-88
2022/12/21 12:53:56;;;;;;;44.88;21.63;;;8.70;99.90;;;;;;4951373;28;20058;-88
2022/12/21 12:56:42;;;;;;;45.85;21.70;;;8.80;99.90;;;;;;4979046;28;20055;-88
2022/12/21 12:59:26;;;;;;;43.88;20.77;;;8.70;99.90;;;;;;4971516;28;20483;-88
2022/12/21 13:02:01;;;;;;;;;;;8.80;99.90;;;;;;4977135;28;20051;-88
2022/12/21 13:04:41;;;;;;;48.67;21.52;;;8.70;99.90;;;;;;4974839;28;20210;-87
2022/12/21 13:07:06;;;;;;;47.45;20.20;;;8.70;99.90;;;;;;4957423;28;20475;-88
2022/12/21 13:09:53;;;;;;;40.30;20.55;;;8.70;99.90;;;;;;4957925;28;20051;-88
2022/12/21 13:12:31;;;;;;;40.58;19.77;;;8.70;99.90;;;;;;4954721;28;20054;-88
2022/12/21 13:15:03;;;;;;;39.78;19.75;;;8.80;99.90;;;;;;4974459;28;20402;-88